Accueil
METAR-TAF:

METAR-TAF

Aéroports :

Novare, Italie

Base aérienne Cameri

latitude: 45-31N, longitude: 008-40E, altitude: 178 m

Observation

Le bulletin a été fait il y a 1 heure et 3 minutes, à 09:55 UTC
Vent 1 kt de direction variable
Température 9°C
Humidité 76%
Pression 1020 hPa
Visibilité: 5000 m
Quelques nuages à une hauteur de 4000 ft
Nuages fragmentés à une hauteur de 6000 ft
brume

METAR: LIMN 220955Z VRB01KT 5000 BR FEW040 BKN060 09/05 Q1020 RMK BKN VIS MIN 5000 WHT

Heure: 11:58 (10:58 UTC)

Prévision

Le bulletin a été fait il y a 2 heures et 58 minutes, à 08:00 UTC
Prévision valable du 22 à 09 UTC au 22 à 18 UTC
Vent 6 kt de nord-ouest
Visibilité: 8000 m
Nuages fragmentés à une hauteur de 4000 ft
Temporairement
du 22 à 09 UTC au 22 à 18 UTC
Visibilité: 3500 m
brume

TAF: LIMN 220800Z 2209/2218 32006KT 8000 BKN040 TEMPO 2209/2218 3500 BR

Observations et prévisions météorologiques de plus de 4000 aéroports (messages METAR et TAF).

Les stations disponibles sont représentées par des disques jaunes et rouges sur la carte.

Passer la souris dessus pour voir le nom de la station.

Cliquer dessus pour voir les observations et prévisions météorologiques.

Pour changer de carte: cliquez sur les boutons verts avec une croix noire pour zoomer, sur le bouton vert avec un tiret pour effectuer un zoom arrière, ou sur les flèches vertes pour les cartes adjacentes.


METAR-TAF: